sensor_id;sensor_type;location;lat;lon;timestamp;P1;P2;P0
62547;PMS7003;48602;45.192;5.722;2023-08-01T00:01:24;6.25;3.00;2.50
62547;PMS7003;48602;45.192;5.722;2023-08-01T00:03:49;5.00;4.50;4.00
62547;PMS7003;48602;45.192;5.722;2023-08-01T00:06:15;5.25;4.50;3.50
62547;PMS7003;48602;45.192;5.722;2023-08-01T00:08:40;5.50;5.00;3.75
62547;PMS7003;48602;45.192;5.722;2023-08-01T00:11:05;3.00;3.00;2.75
62547;PMS7003;48602;45.192;5.722;2023-08-01T00:13:31;4.75;4.75;4.00
62547;PMS7003;48602;45.192;5.722;2023-08-01T00:15:56;4.25;4.25;4.00
62547;PMS7003;48602;45.192;5.722;2023-08-01T00:18:22;3.25;3.00;3.00
62547;PMS7003;48602;45.192;5.722;2023-08-01T00:20:47;4.25;4.25;3.75
62547;PMS7003;48602;45.192;5.722;2023-08-01T00:23:12;6.50;5.00;4.75
62547;PMS7003;48602;45.192;5.722;2023-08-01T00:25:38;4.75;3.25;2.75
62547;PMS7003;48602;45.192;5.722;2023-08-01T00:28:04;5.75;5.00;4.00
62547;PMS7003;48602;45.192;5.722;2023-08-01T00:30:29;4.00;4.00;3.00
62547;PMS7003;48602;45.192;5.722;2023-08-01T00:32:54;4.00;4.00;4.00
62547;PMS7003;48602;45.192;5.722;2023-08-01T00:35:20;5.25;5.00;4.25
62547;PMS7003;48602;45.192;5.722;2023-08-01T00:37:46;5.50;5.50;4.25
62547;PMS7003;48602;45.192;5.722;2023-08-01T00:40:11;5.00;5.00;5.00
62547;PMS7003;48602;45.192;5.722;2023-08-01T00:42:37;3.00;3.00;3.00
62547;PMS7003;48602;45.192;5.722;2023-08-01T00:45:03;3.50;2.75;2.25
62547;PMS7003;48602;45.192;5.722;2023-08-01T00:47:29;5.00;5.00;4.00
62547;PMS7003;48602;45.192;5.722;2023-08-01T00:49:55;5.00;5.00;4.25
62547;PMS7003;48602;45.192;5.722;2023-08-01T00:52:20;5.00;4.50;3.00
62547;PMS7003;48602;45.192;5.722;2023-08-01T00:54:47;4.00;4.00;3.40
62547;PMS7003;48602;45.192;5.722;2023-08-01T00:57:13;5.00;5.00;4.00
62547;PMS7003;48602;45.192;5.722;2023-08-01T00:59:39;5.25;4.25;3.50
62547;PMS7003;48602;45.192;5.722;2023-08-01T01:02:04;7.00;6.00;5.75
62547;PMS7003;48602;45.192;5.722;2023-08-01T01:04:30;5.00;5.00;4.00
62547;PMS7003;48602;45.192;5.722;2023-08-01T01:07:02;6.00;3.25;3.00
62547;PMS7003;48602;45.192;5.722;2023-08-01T01:09:30;7.40;5.40;4.20
62547;PMS7003;48602;45.192;5.722;2023-08-01T01:11:59;5.00;4.00;3.20
62547;PMS7003;48602;45.192;5.722;2023-08-01T01:14:28;4.20;4.20;4.20
62547;PMS7003;48602;45.192;5.722;2023-08-01T01:16:54;4.00;4.00;3.40
62547;PMS7003;48602;45.192;5.722;2023-08-01T01:19:20;5.20;4.20;4.00
62547;PMS7003;48602;45.192;5.722;2023-08-01T01:21:46;6.00;6.00;5.00
62547;PMS7003;48602;45.192;5.722;2023-08-01T01:24:13;6.80;5.60;4.00
62547;PMS7003;48602;45.192;5.722;2023-08-01T01:26:41;5.40;5.00;4.00
62547;PMS7003;48602;45.192;5.722;2023-08-01T01:29:07;7.00;6.00;4.20
62547;PMS7003;48602;45.192;5.722;2023-08-01T01:31:35;7.50;5.75;4.00
62547;PMS7003;48602;45.192;5.722;2023-08-01T01:34:01;7.00;5.20;4.20
62547;PMS7003;48602;45.192;5.722;2023-08-01T01:36:27;6.50;4.75;4.25
62547;PMS7003;48602;45.192;5.722;2023-08-01T01:38:52;4.75;4.75;4.00
62547;PMS7003;48602;45.192;5.722;2023-08-01T01:41:18;5.00;5.00;4.00
62547;PMS7003;48602;45.192;5.722;2023-08-01T01:43:43;6.00;4.25;4.00
62547;PMS7003;48602;45.192;5.722;2023-08-01T01:46:09;5.40;4.00;2.60
62547;PMS7003;48602;45.192;5.722;2023-08-01T01:48:35;5.25;4.25;3.00
62547;PMS7003;48602;45.192;5.722;2023-08-01T01:51:00;4.50;4.50;4.00
62547;PMS7003;48602;45.192;5.722;2023-08-01T01:53:25;6.00;6.00;5.00
62547;PMS7003;48602;45.192;5.722;2023-08-01T01:55:51;5.00;5.00;3.75
62547;PMS7003;48602;45.192;5.722;2023-08-01T01:58:17;6.40;6.00;4.60
62547;PMS7003;48602;45.192;5.722;2023-08-01T02:00:42;4.25;4.25;3.50
62547;PMS7003;48602;45.192;5.722;2023-08-01T02:03:07;4.25;3.75;2.50
62547;PMS7003;48602;45.192;5.722;2023-08-01T02:05:35;4.00;4.00;3.80
62547;PMS7003;48602;45.192;5.722;2023-08-01T02:08:01;5.00;5.00;4.00
62547;PMS7003;48602;45.192;5.722;2023-08-01T02:10:26;4.25;4.25;3.50
62547;PMS7003;48602;45.192;5.722;2023-08-01T02:12:52;3.75;3.75;3.00
62547;PMS7003;48602;45.192;5.722;2023-08-01T02:15:17;3.00;3.00;2.75
62547;PMS7003;48602;45.192;5.722;2023-08-01T02:17:42;3.00;3.00;3.00
62547;PMS7003;48602;45.192;5.722;2023-08-01T02:20:08;4.50;4.50;4.00
62547;PMS7003;48602;45.192;5.722;2023-08-01T02:22:33;6.50;4.25;4.00
62547;PMS7003;48602;45.192;5.722;2023-08-01T02:24:59;5.75;5.25;5.00
62547;PMS7003;48602;45.192;5.722;2023-08-01T02:27:24;8.75;5.00;4.00
62547;PMS7003;48602;45.192;5.722;2023-08-01T02:29:50;5.25;5.00;3.75
62547;PMS7003;48602;45.192;5.722;2023-08-01T02:32:15;7.00;4.75;4.25
62547;PMS7003;48602;45.192;5.722;2023-08-01T02:34:41;5.75;4.25;3.50
62547;PMS7003;48602;45.192;5.722;2023-08-01T02:37:07;9.25;5.25;5.00
62547;PMS7003;48602;45.192;5.722;2023-08-01T02:39:32;4.75;4.00;4.00
62547;PMS7003;48602;45.192;5.722;2023-08-01T02:41:57;7.25;5.75;5.25
62547;PMS7003;48602;45.192;5.722;2023-08-01T02:44:23;5.50;5.00;4.00
62547;PMS7003;48602;45.192;5.722;2023-08-01T02:46:48;5.75;4.50;4.00
62547;PMS7003;48602;45.192;5.722;2023-08-01T02:49:13;6.75;6.25;4.25
62547;PMS7003;48602;45.192;5.722;2023-08-01T02:51:39;8.50;4.25;3.00
62547;PMS7003;48602;45.192;5.722;2023-08-01T02:54:04;5.00;5.00;4.00
62547;PMS7003;48602;45.192;5.722;2023-08-01T02:56:30;6.25;6.25;5.75
62547;PMS7003;48602;45.192;5.722;2023-08-01T02:58:55;6.25;5.75;4.50
62547;PMS7003;48602;45.192;5.722;2023-08-01T03:01:20;7.75;4.75;4.00
62547;PMS7003;48602;45.192;5.722;2023-08-01T03:03:46;6.50;5.75;4.00
62547;PMS7003;48602;45.192;5.722;2023-08-01T03:06:11;5.75;4.75;3.00
62547;PMS7003;48602;45.192;5.722;2023-08-01T03:08:37;5.75;5.75;4.00
62547;PMS7003;48602;45.192;5.722;2023-08-01T03:11:03;5.00;5.00;4.00
62547;PMS7003;48602;45.192;5.722;2023-08-01T03:13:28;5.75;5.75;5.00
62547;PMS7003;48602;45.192;5.722;2023-08-01T03:15:54;4.00;4.00;4.00
62547;PMS7003;48602;45.192;5.722;2023-08-01T03:18:19;6.25;4.00;3.50
62547;PMS7003;48602;45.192;5.722;2023-08-01T03:20:44;7.25;5.00;4.00
62547;PMS7003;48602;45.192;5.722;2023-08-01T03:23:10;4.75;4.75;4.00
62547;PMS7003;48602;45.192;5.722;2023-08-01T03:25:35;4.25;4.00;3.25
62547;PMS7003;48602;45.192;5.722;2023-08-01T03:28:01;4.25;4.25;4.00
62547;PMS7003;48602;45.192;5.722;2023-08-01T03:30:26;4.50;4.50;3.75
62547;PMS7003;48602;45.192;5.722;2023-08-01T03:32:51;3.75;3.25;3.00
62547;PMS7003;48602;45.192;5.722;2023-08-01T03:35:17;6.00;5.00;4.00
62547;PMS7003;48602;45.192;5.722;2023-08-01T03:37:43;4.75;4.75;4.25
62547;PMS7003;48602;45.192;5.722;2023-08-01T03:40:08;3.00;3.00;3.00
62547;PMS7003;48602;45.192;5.722;2023-08-01T03:42:34;4.50;4.00;3.50
62547;PMS7003;48602;45.192;5.722;2023-08-01T03:45:00;6.00;5.00;4.00
62547;PMS7003;48602;45.192;5.722;2023-08-01T03:47:25;3.25;3.25;3.00
62547;PMS7003;48602;45.192;5.722;2023-08-01T03:49:51;6.00;4.25;4.00
62547;PMS7003;48602;45.192;5.722;2023-08-01T03:52:16;6.00;5.00;4.00
62547;PMS7003;48602;45.192;5.722;2023-08-01T03:54:41;6.75;5.00;4.00
62547;PMS7003;48602;45.192;5.722;2023-08-01T03:57:07;5.00;5.00;4.75
62547;PMS7003;48602;45.192;5.722;2023-08-01T03:59:32;5.25;5.25;4.75
62547;PMS7003;48602;45.192;5.722;2023-08-01T04:01:57;5.50;5.50;4.50
62547;PMS7003;48602;45.192;5.722;2023-08-01T04:04:23;6.00;5.00;4.00
62547;PMS7003;48602;45.192;5.722;2023-08-01T04:06:48;7.00;6.50;5.00
62547;PMS7003;48602;45.192;5.722;2023-08-01T04:09:14;7.00;7.00;5.00
62547;PMS7003;48602;45.192;5.722;2023-08-01T04:11:39;5.00;5.00;5.00
62547;PMS7003;48602;45.192;5.722;2023-08-01T04:14:04;5.00;4.25;4.00
62547;PMS7003;48602;45.192;5.722;2023-08-01T04:16:30;4.00;4.00;4.00
62547;PMS7003;48602;45.192;5.722;2023-08-01T04:18:55;4.00;4.00;3.00
62547;PMS7003;48602;45.192;5.722;2023-08-01T04:21:21;5.00;5.00;3.75
62547;PMS7003;48602;45.192;5.722;2023-08-01T04:23:46;5.75;4.25;3.50
62547;PMS7003;48602;45.192;5.722;2023-08-01T04:26:12;5.75;5.25;4.00
62547;PMS7003;48602;45.192;5.722;2023-08-01T04:28:37;5.00;4.25;4.00
62547;PMS7003;48602;45.192;5.722;2023-08-01T04:31:02;7.00;5.25;4.25
62547;PMS7003;48602;45.192;5.722;2023-08-01T04:33:28;3.75;3.75;3.00
62547;PMS7003;48602;45.192;5.722;2023-08-01T04:35:53;5.25;5.00;4.50
62547;PMS7003;48602;45.192;5.722;2023-08-01T04:38:19;8.25;6.00;5.00
62547;PMS7003;48602;45.192;5.722;2023-08-01T04:40:44;4.00;3.25;3.25
62547;PMS7003;48602;45.192;5.722;2023-08-01T04:43:11;7.00;6.25;4.25
62547;PMS7003;48602;45.192;5.722;2023-08-01T04:45:37;7.00;5.75;4.75
62547;PMS7003;48602;45.192;5.722;2023-08-01T04:48:02;8.75;7.50;6.00
62547;PMS7003;48602;45.192;5.722;2023-08-01T04:50:28;9.25;7.25;6.00
62547;PMS7003;48602;45.192;5.722;2023-08-01T04:52:53;5.75;4.00;4.00
62547;PMS7003;48602;45.192;5.722;2023-08-01T04:55:19;6.00;6.00;6.00
62547;PMS7003;48602;45.192;5.722;2023-08-01T04:57:44;7.25;7.25;6.00
62547;PMS7003;48602;45.192;5.722;2023-08-01T05:00:10;7.00;5.00;4.00
62547;PMS7003;48602;45.192;5.722;2023-08-01T05:02:36;6.00;5.00;4.00
62547;PMS7003;48602;45.192;5.722;2023-08-01T05:05:01;7.50;6.50;5.25
62547;PMS7003;48602;45.192;5.722;2023-08-01T05:07:27;5.75;5.25;4.00
62547;PMS7003;48602;45.192;5.722;2023-08-01T05:09:52;4.75;4.50;3.75
62547;PMS7003;48602;45.192;5.722;2023-08-01T05:12:17;7.25;7.25;5.00
62547;PMS7003;48602;45.192;5.722;2023-08-01T05:14:43;9.00;8.75;6.00
62547;PMS7003;48602;45.192;5.722;2023-08-01T05:17:08;6.00;6.00;5.00
62547;PMS7003;48602;45.192;5.722;2023-08-01T05:19:34;6.00;6.00;5.75
62547;PMS7003;48602;45.192;5.722;2023-08-01T05:21:59;5.25;4.75;4.25
62547;PMS7003;48602;45.192;5.722;2023-08-01T05:24:25;4.25;4.25;4.00
62547;PMS7003;48602;45.192;5.722;2023-08-01T05:26:50;6.50;6.50;5.00
62547;PMS7003;48602;45.192;5.722;2023-08-01T05:29:15;5.25;5.25;4.00
62547;PMS7003;48602;45.192;5.722;2023-08-01T05:31:41;6.75;6.00;5.25
62547;PMS7003;48602;45.192;5.722;2023-08-01T05:34:06;5.25;5.25;4.50
62547;PMS7003;48602;45.192;5.722;2023-08-01T05:36:31;5.00;4.75;3.00
62547;PMS7003;48602;45.192;5.722;2023-08-01T05:38:57;5.25;4.50;3.50
62547;PMS7003;48602;45.192;5.722;2023-08-01T05:41:22;8.25;6.50;5.25
62547;PMS7003;48602;45.192;5.722;2023-08-01T05:43:48;5.00;5.00;3.75
62547;PMS7003;48602;45.192;5.722;2023-08-01T05:46:23;7.00;6.40;5.20
62547;PMS7003;48602;45.192;5.722;2023-08-01T05:48:49;5.25;5.25;4.75
62547;PMS7003;48602;45.192;5.722;2023-08-01T05:51:14;6.50;6.25;5.00
62547;PMS7003;48602;45.192;5.722;2023-08-01T05:53:40;6.50;5.00;4.25
62547;PMS7003;48602;45.192;5.722;2023-08-01T05:56:05;6.25;5.75;5.00
62547;PMS7003;48602;45.192;5.722;2023-08-01T05:58:31;9.25;5.25;3.75
62547;PMS7003;48602;45.192;5.722;2023-08-01T06:00:56;6.00;5.00;5.00
62547;PMS7003;48602;45.192;5.722;2023-08-01T06:03:22;7.75;5.75;5.25
62547;PMS7003;48602;45.192;5.722;2023-08-01T06:05:48;7.25;6.00;5.00
62547;PMS7003;48602;45.192;5.722;2023-08-01T06:08:13;6.00;5.00;5.00
62547;PMS7003;48602;45.192;5.722;2023-08-01T06:10:40;5.80;5.80;5.00
62547;PMS7003;48602;45.192;5.722;2023-08-01T06:13:06;5.50;3.75;3.50
62547;PMS7003;48602;45.192;5.722;2023-08-01T06:15:32;6.00;6.00;4.00
62547;PMS7003;48602;45.192;5.722;2023-08-01T06:17:57;7.75;5.50;4.50
62547;PMS7003;48602;45.192;5.722;2023-08-01T06:20:22;3.75;3.75;3.25
62547;PMS7003;48602;45.192;5.722;2023-08-01T06:22:48;5.50;5.25;5.00
62547;PMS7003;48602;45.192;5.722;2023-08-01T06:25:13;7.75;6.00;5.00
62547;PMS7003;48602;45.192;5.722;2023-08-01T06:27:39;7.25;6.25;4.75
62547;PMS7003;48602;45.192;5.722;2023-08-01T06:30:04;6.50;6.00;5.75
62547;PMS7003;48602;45.192;5.722;2023-08-01T06:32:31;5.00;5.00;4.00
62547;PMS7003;48602;45.192;5.722;2023-08-01T06:34:56;6.00;6.00;4.00
62547;PMS7003;48602;45.192;5.722;2023-08-01T06:37:21;6.00;6.00;6.00
62547;PMS7003;48602;45.192;5.722;2023-08-01T06:39:47;9.50;9.00;7.00
62547;PMS7003;48602;45.192;5.722;2023-08-01T06:42:12;9.00;7.00;5.50
62547;PMS7003;48602;45.192;5.722;2023-08-01T06:44:38;7.25;6.50;6.00
62547;PMS7003;48602;45.192;5.722;2023-08-01T06:47:03;7.25;7.25;6.00
62547;PMS7003;48602;45.192;5.722;2023-08-01T06:49:29;7.25;7.00;5.00
62547;PMS7003;48602;45.192;5.722;2023-08-01T06:51:54;7.25;5.00;4.00
62547;PMS7003;48602;45.192;5.722;2023-08-01T06:54:20;7.00;6.00;4.00
62547;PMS7003;48602;45.192;5.722;2023-08-01T06:56:45;9.25;8.00;6.00
62547;PMS7003;48602;45.192;5.722;2023-08-01T06:59:15;6.20;5.40;4.80
62547;PMS7003;48602;45.192;5.722;2023-08-01T07:01:41;7.00;7.00;6.00
62547;PMS7003;48602;45.192;5.722;2023-08-01T07:04:11;8.60;5.20;5.00
62547;PMS7003;48602;45.192;5.722;2023-08-01T07:06:38;8.60;5.80;5.00
62547;PMS7003;48602;45.192;5.722;2023-08-01T07:09:04;5.40;5.40;4.40
62547;PMS7003;48602;45.192;5.722;2023-08-01T07:11:30;7.50;7.00;5.75
62547;PMS7003;48602;45.192;5.722;2023-08-01T07:13:55;6.00;6.00;5.00
62547;PMS7003;48602;45.192;5.722;2023-08-01T07:16:21;6.00;5.00;4.50
62547;PMS7003;48602;45.192;5.722;2023-08-01T07:18:46;9.50;7.00;6.00
62547;PMS7003;48602;45.192;5.722;2023-08-01T07:21:13;5.00;4.60;4.20
62547;PMS7003;48602;45.192;5.722;2023-08-01T07:23:39;6.75;6.00;5.50
62547;PMS7003;48602;45.192;5.722;2023-08-01T07:26:05;8.60;7.00;5.60
62547;PMS7003;48602;45.192;5.722;2023-08-01T07:28:30;8.25;7.00;6.00
62547;PMS7003;48602;45.192;5.722;2023-08-01T07:31:02;9.25;6.50;5.50
62547;PMS7003;48602;45.192;5.722;2023-08-01T07:33:30;9.00;8.00;7.20
62547;PMS7003;48602;45.192;5.722;2023-08-01T07:35:56;7.00;7.00;6.00
62547;PMS7003;48602;45.192;5.722;2023-08-01T07:38:21;6.25;6.25;6.00
62547;PMS7003;48602;45.192;5.722;2023-08-01T07:40:47;6.75;6.00;4.50
62547;PMS7003;48602;45.192;5.722;2023-08-01T07:43:12;6.25;5.25;4.75
62547;PMS7003;48602;45.192;5.722;2023-08-01T07:45:38;7.00;7.00;6.00
62547;PMS7003;48602;45.192;5.722;2023-08-01T07:48:03;6.50;6.00;5.00
62547;PMS7003;48602;45.192;5.722;2023-08-01T07:50:29;9.75;6.00;5.00
62547;PMS7003;48602;45.192;5.722;2023-08-01T07:52:55;9.75;6.75;5.00
62547;PMS7003;48602;45.192;5.722;2023-08-01T07:55:20;6.00;4.25;3.75
62547;PMS7003;48602;45.192;5.722;2023-08-01T07:57:46;8.00;5.75;5.00
62547;PMS7003;48602;45.192;5.722;2023-08-01T08:00:12;6.00;6.00;4.50
62547;PMS7003;48602;45.192;5.722;2023-08-01T08:02:38;6.75;6.25;5.00
62547;PMS7003;48602;45.192;5.722;2023-08-01T08:05:03;8.75;6.25;5.50
62547;PMS7003;48602;45.192;5.722;2023-08-01T08:07:30;9.25;8.00;6.00
62547;PMS7003;48602;45.192;5.722;2023-08-01T08:09:55;7.50;6.00;5.25
62547;PMS7003;48602;45.192;5.722;2023-08-01T08:12:22;7.00;5.25;5.00
62547;PMS7003;48602;45.192;5.722;2023-08-01T08:14:48;8.00;8.00;6.00
62547;PMS7003;48602;45.192;5.722;2023-08-01T08:17:13;11.50;7.00;5.00
62547;PMS7003;48602;45.192;5.722;2023-08-01T08:19:40;9.50;7.00;6.25
62547;PMS7003;48602;45.192;5.722;2023-08-01T08:22:05;1.00;1.00;1.00
62547;PMS7003;48602;45.192;5.722;2023-08-01T08:24:31;7.25;6.00;5.00
62547;PMS7003;48602;45.192;5.722;2023-08-01T08:26:56;10.00;8.00;5.25
62547;PMS7003;48602;45.192;5.722;2023-08-01T08:29:21;10.75;8.75;6.00
62547;PMS7003;48602;45.192;5.722;2023-08-01T08:31:47;9.25;6.75;5.25
62547;PMS7003;48602;45.192;5.722;2023-08-01T08:34:13;5.25;5.00;5.00
62547;PMS7003;48602;45.192;5.722;2023-08-01T08:36:38;9.25;8.00;5.50
62547;PMS7003;48602;45.192;5.722;2023-08-01T08:39:03;6.00;6.00;5.25
62547;PMS7003;48602;45.192;5.722;2023-08-01T08:41:30;7.25;5.25;5.00
62547;PMS7003;48602;45.192;5.722;2023-08-01T08:44:14;8.40;7.80;6.80
62547;PMS7003;48602;45.192;5.722;2023-08-01T08:46:50;9.00;7.60;6.40
62547;PMS7003;48602;45.192;5.722;2023-08-01T08:49:18;12.75;8.50;6.75
62547;PMS7003;48602;45.192;5.722;2023-08-01T08:51:45;13.75;12.25;9.25
62547;PMS7003;48602;45.192;5.722;2023-08-01T08:54:11;7.50;4.00;4.00
62547;PMS7003;48602;45.192;5.722;2023-08-01T08:56:38;10.20;7.00;6.00
62547;PMS7003;48602;45.192;5.722;2023-08-01T08:59:05;7.20;6.00;5.00
62547;PMS7003;48602;45.192;5.722;2023-08-01T09:01:32;7.80;7.00;6.00
62547;PMS7003;48602;45.192;5.722;2023-08-01T09:03:59;10.40;8.40;6.60
62547;PMS7003;48602;45.192;5.722;2023-08-01T09:06:25;9.50;9.00;7.00
62547;PMS7003;48602;45.192;5.722;2023-08-01T09:11:41;13.80;8.00;6.80
62547;PMS7003;48602;45.192;5.722;2023-08-01T09:14:09;7.60;7.20;6.80
62547;PMS7003;48602;45.192;5.722;2023-08-01T09:16:35;8.00;6.60;5.00
62547;PMS7003;48602;45.192;5.722;2023-08-01T09:19:01;9.50;7.00;6.00
62547;PMS7003;48602;45.192;5.722;2023-08-01T09:21:27;8.20;7.20;5.00
62547;PMS7003;48602;45.192;5.722;2023-08-01T09:24:16;7.20;5.60;4.80
62547;PMS7003;48602;45.192;5.722;2023-08-01T09:26:43;6.20;6.20;4.80
62547;PMS7003;48602;45.192;5.722;2023-08-01T09:29:09;7.20;5.60;5.00
62547;PMS7003;48602;45.192;5.722;2023-08-01T09:31:36;7.00;7.00;5.50
62547;PMS7003;48602;45.192;5.722;2023-08-01T09:34:04;8.60;8.40;6.80
62547;PMS7003;48602;45.192;5.722;2023-08-01T09:36:31;11.40;10.40;8.00
62547;PMS7003;48602;45.192;5.722;2023-08-01T09:39:00;8.20;7.60;6.00
62547;PMS7003;48602;45.192;5.722;2023-08-01T09:41:30;8.80;8.00;6.60
62547;PMS7003;48602;45.192;5.722;2023-08-01T09:43:56;7.80;6.60;5.20
62547;PMS7003;48602;45.192;5.722;2023-08-01T09:46:22;8.50;8.50;7.00
62547;PMS7003;48602;45.192;5.722;2023-08-01T09:48:48;14.75;11.25;9.25
62547;PMS7003;48602;45.192;5.722;2023-08-01T09:51:14;9.50;9.00;7.50
62547;PMS7003;48602;45.192;5.722;2023-08-01T09:53:49;9.40;7.80;6.20
62547;PMS7003;48602;45.192;5.722;2023-08-01T09:56:15;9.60;9.00;7.00
62547;PMS7003;48602;45.192;5.722;2023-08-01T09:58:43;9.40;9.40;6.80
62547;PMS7003;48602;45.192;5.722;2023-08-01T10:01:11;10.40;9.20;8.20
62547;PMS7003;48602;45.192;5.722;2023-08-01T10:03:37;10.00;8.40;7.40
62547;PMS7003;48602;45.192;5.722;2023-08-01T10:06:05;9.00;9.00;7.00
62547;PMS7003;48602;45.192;5.722;2023-08-01T10:08:31;6.50;6.00;4.25
62547;PMS7003;48602;45.192;5.722;2023-08-01T10:10:58;9.60;9.60;7.60
62547;PMS7003;48602;45.192;5.722;2023-08-01T10:13:25;12.20;10.60;7.80
62547;PMS7003;48602;45.192;5.722;2023-08-01T10:15:52;6.20;6.20;4.80
62547;PMS7003;48602;45.192;5.722;2023-08-01T10:18:18;11.00;7.50;6.50
62547;PMS7003;48602;45.192;5.722;2023-08-01T10:20:44;11.80;9.20;6.80
62547;PMS7003;48602;45.192;5.722;2023-08-01T10:23:10;9.20;9.00;7.40
62547;PMS7003;48602;45.192;5.722;2023-08-01T10:25:37;7.80;7.80;6.20
62547;PMS7003;48602;45.192;5.722;2023-08-01T10:28:05;9.60;8.60;6.60
62547;PMS7003;48602;45.192;5.722;2023-08-01T10:30:31;11.00;8.60;7.00
62547;PMS7003;48602;45.192;5.722;2023-08-01T10:32:57;8.50;7.75;6.25
62547;PMS7003;48602;45.192;5.722;2023-08-01T10:35:34;10.00;9.60;7.60
62547;PMS7003;48602;45.192;5.722;2023-08-01T10:38:03;9.40;9.40;6.80
62547;PMS7003;48602;45.192;5.722;2023-08-01T10:40:41;14.20;9.60;7.60
62547;PMS7003;48602;45.192;5.722;2023-08-01T10:43:20;8.20;8.20;6.80
62547;PMS7003;48602;45.192;5.722;2023-08-01T10:45:48;9.60;8.80;7.60
62547;PMS7003;48602;45.192;5.722;2023-08-01T10:48:26;8.80;8.20;6.60
62547;PMS7003;48602;45.192;5.722;2023-08-01T10:50:55;10.75;9.75;8.50
62547;PMS7003;48602;45.192;5.722;2023-08-01T10:53:21;9.20;8.60;6.00
62547;PMS7003;48602;45.192;5.722;2023-08-01T10:55:47;11.75;11.75;9.25
62547;PMS7003;48602;45.192;5.722;2023-08-01T10:58:13;9.60;8.00;6.20
62547;PMS7003;48602;45.192;5.722;2023-08-01T11:00:39;10.00;8.00;6.25
62547;PMS7003;48602;45.192;5.722;2023-08-01T11:03:06;7.80;7.80;6.40
62547;PMS7003;48602;45.192;5.722;2023-08-01T11:05:32;8.25;6.25;6.00
62547;PMS7003;48602;45.192;5.722;2023-08-01T11:07:58;8.00;7.00;5.00
62547;PMS7003;48602;45.192;5.722;2023-08-01T11:10:25;6.60;6.60;5.20
62547;PMS7003;48602;45.192;5.722;2023-08-01T11:12:52;8.20;7.80;6.00
62547;PMS7003;48602;45.192;5.722;2023-08-01T11:15:20;5.80;5.80;4.60
62547;PMS7003;48602;45.192;5.722;2023-08-01T11:17:47;6.00;6.00;5.00
62547;PMS7003;48602;45.192;5.722;2023-08-01T11:20:19;5.80;5.60;4.00
62547;PMS7003;48602;45.192;5.722;2023-08-01T11:22:59;6.00;5.80;4.40
62547;PMS7003;48602;45.192;5.722;2023-08-01T11:28:05;7.00;5.20;4.00
62547;PMS7003;48602;45.192;5.722;2023-08-01T11:30:36;8.00;7.00;6.00
62547;PMS7003;48602;45.192;5.722;2023-08-01T11:33:02;8.20;7.60;7.00
62547;PMS7003;48602;45.192;5.722;2023-08-01T11:35:38;7.80;6.80;5.60
62547;PMS7003;48602;45.192;5.722;2023-08-01T11:38:04;9.00;9.00;7.60
62547;PMS7003;48602;45.192;5.722;2023-08-01T11:40:31;8.60;6.40;5.60
62547;PMS7003;48602;45.192;5.722;2023-08-01T11:42:57;6.80;5.60;4.80
62547;PMS7003;48602;45.192;5.722;2023-08-01T11:45:23;5.00;4.75;4.25
62547;PMS7003;48602;45.192;5.722;2023-08-01T11:47:48;8.75;7.00;5.25
62547;PMS7003;48602;45.192;5.722;2023-08-01T11:50:19;9.75;6.50;5.50
62547;PMS7003;48602;45.192;5.722;2023-08-01T11:52:48;8.00;7.00;6.00
62547;PMS7003;48602;45.192;5.722;2023-08-01T11:55:20;4.75;4.75;4.00
62547;PMS7003;48602;45.192;5.722;2023-08-01T11:57:53;7.00;5.80;4.80
62547;PMS7003;48602;45.192;5.722;2023-08-01T12:00:25;4.20;4.20;3.80
62547;PMS7003;48602;45.192;5.722;2023-08-01T12:03:02;4.40;4.40;3.60
62547;PMS7003;48602;45.192;5.722;2023-08-01T12:05:32;4.00;4.00;3.40
62547;PMS7003;48602;45.192;5.722;2023-08-01T12:08:14;5.00;4.50;3.50
62547;PMS7003;48602;45.192;5.722;2023-08-01T12:10:40;4.40;3.60;3.40
62547;PMS7003;48602;45.192;5.722;2023-08-01T12:13:20;6.20;5.80;4.40
62547;PMS7003;48602;45.192;5.722;2023-08-01T12:15:50;5.20;4.40;4.00
62547;PMS7003;48602;45.192;5.722;2023-08-01T12:18:26;6.00;5.60;5.00
62547;PMS7003;48602;45.192;5.722;2023-08-01T12:20:52;4.20;4.20;4.20
62547;PMS7003;48602;45.192;5.722;2023-08-01T12:23:18;4.50;4.50;3.50
62547;PMS7003;48602;45.192;5.722;2023-08-01T12:25:43;4.00;3.00;2.75
62547;PMS7003;48602;45.192;5.722;2023-08-01T12:28:09;4.80;4.80;4.00
62547;PMS7003;48602;45.192;5.722;2023-08-01T12:30:35;4.00;4.00;3.50
62547;PMS7003;48602;45.192;5.722;2023-08-01T12:33:00;4.75;4.75;3.50
62547;PMS7003;48602;45.192;5.722;2023-08-01T12:35:26;2.00;2.00;1.75
62547;PMS7003;48602;45.192;5.722;2023-08-01T12:37:52;3.60;3.00;2.80
62547;PMS7003;48602;45.192;5.722;2023-08-01T12:40:18;5.40;2.80;2.40
62547;PMS7003;48602;45.192;5.722;2023-08-01T12:42:44;5.80;5.80;4.00
62547;PMS7003;48602;45.192;5.722;2023-08-01T12:45:10;4.00;3.50;3.25
62547;PMS7003;48602;45.192;5.722;2023-08-01T12:47:35;2.00;2.00;1.50
62547;PMS7003;48602;45.192;5.722;2023-08-01T12:50:00;1.25;1.25;1.00
62547;PMS7003;48602;45.192;5.722;2023-08-01T12:52:26;2.50;2.00;1.75
62547;PMS7003;48602;45.192;5.722;2023-08-01T12:54:52;1.00;1.00;1.00
62547;PMS7003;48602;45.192;5.722;2023-08-01T12:57:17;3.00;2.75;2.25
62547;PMS7003;48602;45.192;5.722;2023-08-01T12:59:43;1.25;1.25;0.75
62547;PMS7003;48602;45.192;5.722;2023-08-01T13:02:09;2.00;2.00;1.00
62547;PMS7003;48602;45.192;5.722;2023-08-01T13:04:34;2.00;2.00;1.75
62547;PMS7003;48602;45.192;5.722;2023-08-01T13:07:00;3.00;3.00;2.00
62547;PMS7003;48602;45.192;5.722;2023-08-01T13:09:25;2.50;2.50;2.25
62547;PMS7003;48602;45.192;5.722;2023-08-01T13:11:51;1.50;1.00;1.00
62547;PMS7003;48602;45.192;5.722;2023-08-01T13:14:16;2.25;1.25;1.25
62547;PMS7003;48602;45.192;5.722;2023-08-01T13:16:42;2.75;2.75;2.00
62547;PMS7003;48602;45.192;5.722;2023-08-01T13:19:07;1.75;1.75;1.00
62547;PMS7003;48602;45.192;5.722;2023-08-01T13:21:33;2.75;1.00;0.50
62547;PMS7003;48602;45.192;5.722;2023-08-01T13:23:59;2.40;2.40;2.40
62547;PMS7003;48602;45.192;5.722;2023-08-01T13:26:29;1.60;1.60;1.40
62547;PMS7003;48602;45.192;5.722;2023-08-01T13:28:55;1.00;1.00;1.00
62547;PMS7003;48602;45.192;5.722;2023-08-01T13:31:21;2.00;2.00;1.00
62547;PMS7003;48602;45.192;5.722;2023-08-01T13:33:46;2.00;2.00;1.00
62547;PMS7003;48602;45.192;5.722;2023-08-01T13:36:12;1.75;1.75;1.75
62547;PMS7003;48602;45.192;5.722;2023-08-01T13:38:38;0.20;0.20;0.20
62547;PMS7003;48602;45.192;5.722;2023-08-01T13:41:03;2.00;1.00;0.75
62547;PMS7003;48602;45.192;5.722;2023-08-01T13:43:29;1.00;1.00;1.00
62547;PMS7003;48602;45.192;5.722;2023-08-01T13:45:54;1.00;1.00;0.75
62547;PMS7003;48602;45.192;5.722;2023-08-01T13:48:20;0.00;0.00;0.00
62547;PMS7003;48602;45.192;5.722;2023-08-01T13:50:46;1.75;1.00;1.00
62547;PMS7003;48602;45.192;5.722;2023-08-01T13:53:11;0.50;0.50;0.25
62547;PMS7003;48602;45.192;5.722;2023-08-01T13:55:39;0.20;0.20;0.00
62547;PMS7003;48602;45.192;5.722;2023-08-01T13:58:05;1.60;0.60;0.60
62547;PMS7003;48602;45.192;5.722;2023-08-01T14:00:31;0.50;0.50;0.00
62547;PMS7003;48602;45.192;5.722;2023-08-01T14:02:57;1.00;1.00;1.00
62547;PMS7003;48602;45.192;5.722;2023-08-01T14:05:25;0.00;0.00;0.00
62547;PMS7003;48602;45.192;5.722;2023-08-01T14:07:51;0.00;0.00;0.00
62547;PMS7003;48602;45.192;5.722;2023-08-01T14:10:17;1.00;1.00;1.00
62547;PMS7003;48602;45.192;5.722;2023-08-01T14:12:43;2.75;2.00;1.00
62547;PMS7003;48602;45.192;5.722;2023-08-01T14:15:09;1.00;1.00;1.00
62547;PMS7003;48602;45.192;5.722;2023-08-01T14:17:35;2.60;2.00;1.60
62547;PMS7003;48602;45.192;5.722;2023-08-01T14:20:00;2.00;1.50;1.00
62547;PMS7003;48602;45.192;5.722;2023-08-01T14:22:26;1.00;1.00;1.00